Time;durP1;ratioP1;P1;durP2;ratioP2;P2;SDS_P1;SDS_P2;PMS_P1;PMS_P2;Temp;Humidity;BMP_temperature;BMP_pressure;BME280_temperature;BME280_humidity;BME280_pressure;Samples;Min_cycle;Max_cycle;Signal;HPM_P1;HPM_P2
2022/06/01 00:00:23;;;;;;;2.60;2.40;;;15.50;59.30;;;18.34;46.20;101201.56;5108747;28;20200;-59
2022/06/01 00:02:50;;;;;;;2.30;2.10;;;15.50;59.50;;;18.35;46.13;101204.00;5067948;28;20281;-64
2022/06/01 00:05:19;;;;;;;2.80;2.60;;;15.50;59.50;;;18.35;46.45;101198.69;5089957;28;20684;-61
2022/06/01 00:11:30;;;;;;;3.77;2.50;;;15.50;59.60;;;18.35;46.52;101204.00;5164666;27;20646;-61
2022/06/01 00:13:56;;;;;;;3.00;2.70;;;15.50;59.50;;;18.37;46.37;101191.31;5113631;28;20199;-60
2022/06/01 00:16:23;;;;;;;2.73;2.17;;;15.50;59.60;;;18.39;46.32;101197.25;5077461;28;20246;-60
2022/06/01 00:18:50;;;;;;;2.93;2.30;;;15.50;59.60;;;18.42;46.53;101193.34;5097361;28;20200;-60
2022/06/01 00:21:17;;;;;;;2.13;1.93;;;15.60;59.60;;;18.42;46.43;101194.16;5032541;28;20196;-62
2022/06/01 00:23:43;;;;;;;2.40;2.30;;;15.60;59.60;;;18.43;46.26;101201.09;5047255;28;20197;-60
2022/06/01 00:26:10;;;;;;;3.13;2.57;;;15.60;59.60;;;18.43;46.58;101198.44;5007331;28;20278;-61
2022/06/01 00:28:38;;;;;;;2.80;2.60;;;15.60;59.70;;;18.43;46.50;101198.44;4971269;28;20216;-61
2022/06/01 00:31:04;;;;;;;2.70;2.50;;;15.60;60.20;;;18.43;46.42;101206.44;5014260;28;20226;-60
2022/06/01 00:33:30;;;;;;;2.60;2.40;;;15.60;60.10;;;18.43;46.36;101201.09;4906117;28;20205;-60
2022/06/01 00:38:35;;;;;;;3.63;2.67;;;15.60;59.60;;;18.47;46.40;101196.22;5162065;27;20615;-61
2022/06/01 00:41:02;;;;;;;2.80;2.60;;;15.60;59.70;;;18.48;46.27;101193.31;5128542;28;20551;-61
2022/06/01 00:43:42;;;;;;;2.70;2.50;;;15.60;59.60;;;18.46;46.38;101189.22;5150617;27;20588;-61
2022/06/01 00:46:09;;;;;;;2.93;2.30;;;15.70;59.70;;;18.47;46.39;101190.88;5080027;28;20318;-64
2022/06/01 00:48:40;;;;;;;2.90;2.70;;;15.60;59.50;;;18.48;46.24;101187.97;5059900;28;20206;-59
2022/06/01 00:51:09;;;;;;;2.67;2.47;;;15.60;59.60;;;18.51;46.33;101187.56;5055558;28;20276;-60
2022/06/01 00:53:40;;;;;;;2.87;2.67;;;15.60;59.70;;;18.51;46.29;101187.56;5037641;28;20210;-61
2022/06/01 00:56:10;;;;;;;2.60;2.40;;;15.70;59.60;;;18.52;46.45;101183.84;4966542;28;20220;-61
2022/06/01 00:58:51;;;;;;;2.83;2.63;;;15.70;59.80;;;18.52;46.34;101178.50;4793963;29;20346;-61
2022/06/01 01:03:59;;;;;;;3.30;2.67;;;15.70;59.70;;;18.53;46.36;101177.50;5172200;27;20633;-61
2022/06/01 01:06:28;;;;;;;3.10;2.30;;;15.70;59.90;;;18.54;46.35;101173.78;5111647;28;20211;-60
2022/06/01 01:08:59;;;;;;;2.67;2.47;;;15.70;59.80;;;18.55;46.20;101166.59;5094644;28;20270;-60
2022/06/01 01:11:33;;;;;;;3.27;2.97;;;15.70;59.80;;;18.54;46.29;101173.78;5110904;28;20549;-60
2022/06/01 01:14:01;;;;;;;2.90;2.70;;;15.70;59.70;;;18.54;46.40;101160.44;5061354;28;20254;-60
2022/06/01 01:16:29;;;;;;;3.03;2.83;;;15.70;59.80;;;18.55;46.12;101158.59;5089945;28;20239;-61
2022/06/01 01:18:58;;;;;;;2.70;2.50;;;15.70;59.70;;;18.54;46.40;101155.13;5082857;28;20283;-61
2022/06/01 01:22:55;;;;;;;3.47;2.87;;;15.70;59.70;;;18.39;46.50;101154.59;4963330;28;20532;-61
2022/06/01 01:28:04;;;;;;;3.47;3.00;;;15.70;59.80;;;18.41;46.40;101144.53;5172137;27;20637;-60
2022/06/01 01:31:00;;;;;;;3.10;2.90;;;15.60;59.80;;;18.34;46.70;101149.09;5132429;27;20203;-61
2022/06/01 01:33:29;;;;;;;3.20;3.00;;;15.60;59.90;;;18.37;46.64;101138.00;5118169;28;20220;-61
2022/06/01 01:36:02;;;;;;;2.83;2.63;;;15.50;60.00;;;18.36;46.66;101141.69;5067816;28;20310;-61
2022/06/01 01:38:37;;;;;;;2.93;2.63;;;15.50;60.00;;;18.35;46.81;101134.72;5021273;28;20198;-61
2022/06/01 01:41:11;;;;;;;3.40;3.10;;;15.50;60.30;;;18.37;46.58;101135.34;4986812;28;20252;-61
2022/06/01 01:43:47;;;;;;;2.97;2.77;;;15.50;60.10;;;18.39;46.56;101135.94;4990533;28;20216;-62
2022/06/01 01:47:29;;;;;;;3.67;3.03;;;15.50;60.30;;;18.28;46.95;101139.25;4905506;29;20226;-61
2022/06/01 01:52:33;;;;;;;3.67;3.00;;;15.50;60.40;;;18.36;46.61;101144.34;5172235;27;20537;-61
2022/06/01 01:55:08;;;;;;;3.43;2.70;;;15.40;60.40;;;18.36;46.70;101139.03;5144454;27;20215;-61
2022/06/01 01:57:48;;;;;;;4.47;3.00;;;15.50;60.70;;;18.36;46.79;101136.34;5111188;28;20188;-61
2022/06/01 02:00:21;;;;;;;3.27;2.97;;;15.50;60.60;;;18.37;46.61;101134.50;5110664;28;20774;-61
2022/06/01 02:02:58;;;;;;;4.33;3.37;;;15.50;60.60;;;18.40;46.76;101137.53;5063631;28;20205;-61
2022/06/01 02:08:27;;;;;;;3.50;3.30;;;15.50;60.70;;;18.40;47.08;101140.22;4897814;29;20252;-61
2022/06/01 02:14:54;;;;;;;3.53;3.30;;;15.60;61.50;;;18.38;47.94;101120.13;4594745;31;20231;-60
2022/06/01 02:19:53;;;;;;;5.30;4.17;;;15.60;62.40;;;18.28;48.42;101116.09;5170271;27;20634;-60
2022/06/01 02:22:20;;;;;;;4.37;4.00;;;15.40;63.10;;;18.25;48.61;101123.72;5125803;28;20191;-60
2022/06/01 02:24:50;;;;;;;2.90;2.70;;;15.30;63.60;;;18.19;48.61;101130.72;5127282;27;20215;-60
2022/06/01 02:27:19;;;;;;;4.37;3.03;;;15.30;63.70;;;18.15;48.57;101131.38;5124933;28;20200;-61
2022/06/01 02:29:54;;;;;;;3.63;3.33;;;15.20;63.40;;;18.13;48.68;101136.09;5067482;28;20200;-61
2022/06/01 02:32:25;;;;;;;4.53;4.10;;;15.20;63.70;;;18.13;48.75;101136.09;5007689;28;20278;-61
2022/06/01 02:34:56;;;;;;;4.90;3.87;;;15.20;63.90;;;18.12;48.81;101142.44;4979698;28;20686;-59
2022/06/01 02:37:25;;;;;;;4.30;3.90;;;15.10;64.20;;;18.08;49.07;101143.91;5026643;28;20206;-60
2022/06/01 02:40:13;;;;;;;4.70;4.30;;;15.10;64.30;;;18.02;49.07;101150.91;5163267;27;20627;-60
2022/06/01 02:42:44;;;;;;;3.97;3.57;;;15.00;64.60;;;18.01;49.21;101151.13;5114496;28;20187;-60
2022/06/01 02:45:13;;;;;;;4.43;3.80;;;15.00;64.90;;;18.01;49.35;101159.13;5121782;28;20223;-61
2022/06/01 02:47:43;;;;;;;4.37;3.97;;;15.00;64.90;;;17.99;49.08;101155.84;5102109;28;20245;-59
2022/06/01 02:50:13;;;;;;;4.47;4.07;;;15.00;64.70;;;17.92;49.36;101155.91;5076541;28;20276;-61
2022/06/01 02:52:41;;;;;;;4.70;4.00;;;15.00;64.70;;;17.88;49.89;101159.16;5071220;28;20194;-61
2022/06/01 02:55:10;;;;;;;4.60;4.17;;;15.00;64.90;;;17.83;50.25;101162.47;5002596;28;20229;-66
2022/06/01 02:57:40;;;;;;;4.83;4.50;;;15.00;66.00;;;17.72;50.79;101170.28;5014251;28;20252;-61
2022/06/01 03:00:21;;;;;;;4.50;4.10;;;15.00;66.20;;;17.59;51.19;101171.97;4954492;28;20645;-61
2022/06/01 03:05:30;;;;;;;5.00;4.20;;;14.90;66.00;;;17.62;51.20;101184.06;5161923;27;20646;-61
2022/06/01 03:08:01;;;;;;;6.53;5.00;;;14.80;66.80;;;17.65;51.49;101190.81;5109372;28;20252;-62
2022/06/01 03:10:28;;;;;;;4.60;4.20;;;14.80;67.50;;;17.68;51.27;101190.38;5117481;28;20190;-62
2022/06/01 03:12:56;;;;;;;5.27;4.47;;;14.80;67.60;;;17.69;51.62;101195.50;5069457;28;20193;-61
2022/06/01 03:15:25;;;;;;;6.07;5.57;;;14.80;68.20;;;17.72;51.62;101187.09;5050726;28;20604;-62
2022/06/01 03:17:53;;;;;;;4.53;4.13;;;14.80;68.40;;;17.76;51.82;101192.84;5062619;28;20193;-61
2022/06/01 03:20:24;;;;;;;5.87;5.30;;;14.80;68.60;;;17.78;51.74;101186.25;5084526;28;20205;-59
2022/06/01 03:23:41;;;;;;;5.33;4.83;;;14.70;68.40;;;17.74;51.72;101178.88;5015273;28;20272;-61
2022/06/01 03:26:22;;;;;;;5.47;5.00;;;14.80;68.50;;;17.79;52.08;101171.09;4780247;29;20321;-60
2022/06/01 03:31:25;;;;;;;5.33;4.77;;;14.80;68.50;;;17.90;52.07;101162.47;5171641;27;20968;-61
2022/06/01 03:33:52;;;;;;;5.87;5.37;;;14.90;69.10;;;17.94;52.01;101163.66;5150500;27;20249;-60
2022/06/01 03:36:19;;;;;;;6.63;5.47;;;15.00;69.20;;;17.99;52.05;101166.50;5116748;27;20219;-61
2022/06/01 03:38:46;;;;;;;6.57;6.00;;;15.00;69.20;;;17.99;52.30;101159.34;5136921;27;20214;-60
2022/06/01 03:41:13;;;;;;;4.70;4.33;;;15.10;69.20;;;18.02;52.25;101166.06;5117524;27;20553;-61
2022/06/01 03:46:25;;;;;;;6.30;5.70;;;15.10;69.70;;;17.98;52.36;101156.88;5026897;28;20669;-60
2022/06/01 03:48:53;;;;;;;6.33;5.80;;;15.00;69.60;;;17.97;52.22;101164.03;5041767;28;20216;-61
2022/06/01 03:51:19;;;;;;;6.40;5.83;;;15.00;69.30;;;17.97;52.47;101163.25;5054264;28;20308;-59
2022/06/01 03:53:45;;;;;;;6.83;4.83;;;15.00;69.50;;;17.97;52.25;101164.03;4953925;28;20191;-61
2022/06/01 03:56:23;;;;;;;5.40;5.00;;;15.00;69.40;;;17.99;52.75;101171.84;5153087;27;21138;-60
2022/06/01 03:58:51;;;;;;;5.97;5.47;;;15.00;69.60;;;18.01;52.48;101175.09;5130892;28;20191;-62
2022/06/01 04:01:19;;;;;;;5.77;5.27;;;15.10;69.50;;;18.01;52.32;101169.78;5130156;28;20561;-59
2022/06/01 04:03:46;;;;;;;6.23;5.67;;;15.10;69.30;;;18.01;52.34;101180.44;5122980;27;20237;-60
2022/06/01 04:06:13;;;;;;;6.53;5.93;;;15.10;69.30;;;18.01;52.57;101180.44;5116733;28;20293;-60
2022/06/01 04:08:39;;;;;;;6.37;5.87;;;15.10;69.60;;;18.02;52.51;101176.72;5123241;28;20280;-62
2022/06/01 04:11:07;;;;;;;6.77;6.17;;;15.20;69.50;;;18.02;52.64;101174.06;5116301;28;20600;-62
2022/06/01 04:13:35;;;;;;;6.60;6.00;;;15.20;69.50;;;18.01;52.50;101175.09;5056020;28;20609;-62
2022/06/01 04:16:02;;;;;;;6.57;5.97;;;15.20;69.60;;;17.98;53.01;101179.00;5014552;28;20238;-61
2022/06/01 04:21:06;;;;;;;6.80;6.20;;;15.10;69.80;;;17.97;52.97;101188.00;5194278;27;20635;-62
2022/06/01 04:23:34;;;;;;;6.37;5.77;;;15.10;70.00;;;17.98;53.06;101178.19;5172844;27;20272;-61
2022/06/01 04:26:00;;;;;;;6.20;5.20;;;15.10;70.10;;;17.97;52.97;101182.69;5176312;27;20248;-60
2022/06/01 04:28:27;;;;;;;6.03;5.53;;;15.10;70.30;;;17.96;53.04;101181.06;5170041;27;20657;-60
2022/06/01 04:30:56;;;;;;;6.90;6.30;;;15.10;70.30;;;17.93;53.21;101178.00;5135550;27;20271;-61
2022/06/01 04:33:23;;;;;;;6.03;5.53;;;15.10;70.30;;;17.92;53.37;101179.03;5089053;28;20196;-62
2022/06/01 04:35:50;;;;;;;7.40;6.50;;;15.00;70.30;;;17.92;53.48;101181.69;5058377;28;20356;-62
2022/06/01 04:39:47;;;;;;;6.70;6.10;;;15.10;70.80;;;17.78;53.49;101177.47;5030070;28;20208;-60
2022/06/01 04:44:52;;;;;;;6.63;5.90;;;15.00;70.70;;;17.85;53.62;101184.38;5168726;27;20619;-61
2022/06/01 04:47:19;;;;;;;7.10;6.40;;;15.00;71.00;;;17.89;53.41;101188.28;5132774;27;20250;-61
2022/06/01 04:49:46;;;;;;;7.20;6.60;;;15.00;71.00;;;17.91;52.77;101190.72;5150053;27;20228;-62
2022/06/01 04:52:14;;;;;;;7.17;6.47;;;15.00;70.30;;;17.89;52.41;101195.44;5125158;28;20287;-61
2022/06/01 04:54:40;;;;;;;7.77;7.07;;;15.00;69.90;;;17.92;52.90;101198.50;5078481;28;20612;-62
2022/06/01 04:57:07;;;;;;;7.53;6.83;;;15.00;70.40;;;17.97;53.07;101192.53;5025572;28;20654;-60
2022/06/01 04:59:34;;;;;;;7.30;6.70;;;15.00;70.70;;;18.06;53.17;101191.28;5014862;28;20203;-60
2022/06/01 05:02:02;;;;;;;7.97;7.00;;;15.00;70.90;;;18.17;52.85;101190.59;4918770;28;20211;-61
2022/06/01 05:04:41;;;;;;;7.00;6.40;;;15.10;71.10;;;18.28;52.69;101184.56;5147081;27;20644;-62
2022/06/01 05:07:08;;;;;;;6.80;6.20;;;15.20;71.00;;;18.38;52.57;101187.59;5109200;28;20738;-61
2022/06/01 05:09:35;;;;;;;6.97;6.00;;;15.30;70.80;;;18.46;52.61;101183.91;5108139;28;20208;-61
2022/06/01 05:12:02;;;;;;;7.13;6.23;;;15.40;70.90;;;18.52;52.40;101189.19;5094466;28;20203;-63
2022/06/01 05:14:29;;;;;;;6.90;6.20;;;15.40;70.40;;;18.55;51.89;101180.75;5090612;28;20228;-61
2022/06/01 05:16:58;;;;;;;6.70;6.10;;;15.50;69.90;;;18.57;52.14;101186.69;5012768;28;20640;-61
2022/06/01 05:19:26;;;;;;;7.90;6.77;;;15.60;70.00;;;18.58;52.08;101175.00;4931339;28;20198;-59
2022/06/01 05:24:31;;;;;;;6.83;6.23;;;15.50;70.00;;;18.61;52.30;101177.22;5169516;27;20641;-61
2022/06/01 05:26:57;;;;;;;6.10;5.50;;;15.60;70.20;;;18.62;52.05;101178.84;5130019;28;20655;-61
2022/06/01 05:29:24;;;;;;;8.53;7.73;;;15.60;69.80;;;18.57;51.65;101186.69;5114299;28;20207;-62
2022/06/01 05:31:51;;;;;;;6.53;5.97;;;15.60;69.20;;;18.50;51.64;101179.75;5123148;27;20192;-62
2022/06/01 05:34:17;;;;;;;7.37;6.70;;;15.60;68.80;;;18.46;51.86;101183.91;5111241;28;20239;-60
2022/06/01 05:36:44;;;;;;;7.20;6.60;;;15.60;69.70;;;18.39;52.05;101189.25;5056439;28;20201;-61
2022/06/01 05:39:11;;;;;;;6.73;6.23;;;15.50;69.10;;;18.35;52.40;101196.00;5018790;28;20207;-62
2022/06/01 05:45:12;;;;;;;8.70;7.80;;;15.50;70.00;;;18.05;53.26;101205.59;5154162;27;20648;-62
2022/06/01 05:47:39;;;;;;;8.23;7.33;;;15.30;70.30;;;17.83;54.13;101205.06;5109442;28;20226;-61
2022/06/01 05:50:07;;;;;;;8.30;7.50;;;15.20;70.80;;;17.63;54.26;101214.16;5121467;28;20675;-62
2022/06/01 05:52:38;;;;;;;7.77;7.00;;;15.10;70.60;;;17.51;54.82;101211.28;5089214;28;20338;-63
2022/06/01 05:55:11;;;;;;;7.60;6.90;;;15.00;71.20;;;17.46;55.11;101209.25;5029362;28;20241;-61
2022/06/01 05:57:39;;;;;;;7.77;7.07;;;14.90;71.70;;;17.44;54.95;101200.66;5020176;28;20194;-61
2022/06/01 06:00:10;;;;;;;7.03;6.43;;;14.80;71.60;;;17.46;54.65;101198.59;5057765;28;20335;-62
2022/06/01 06:02:36;;;;;;;7.80;7.10;;;14.80;71.40;;;17.56;55.24;101200.88;5027025;28;20256;-62
2022/06/01 06:07:41;;;;;;;7.43;6.60;;;14.80;72.60;;;17.65;54.19;101214.75;5171624;27;20630;-62
2022/06/01 06:10:08;;;;;;;7.37;6.67;;;14.80;71.60;;;17.69;53.87;101210.66;5133399;27;20657;-59
2022/06/01 06:12:35;;;;;;;7.47;6.73;;;14.90;71.50;;;17.76;54.03;101214.13;5148947;27;20198;-61
2022/06/01 06:15:02;;;;;;;6.97;6.20;;;14.90;71.70;;;17.82;53.72;101215.94;5159027;27;20293;-60
2022/06/01 06:17:28;;;;;;;6.63;6.00;;;14.90;71.70;;;17.91;53.89;101228.00;5115459;27;20649;-61
2022/06/01 06:19:55;;;;;;;6.97;6.27;;;15.00;71.90;;;17.99;53.83;101219.78;5071504;28;20208;-58
2022/06/01 06:22:23;;;;;;;10.27;9.37;;;15.00;71.90;;;18.09;53.65;101215.63;5104576;28;20210;-61
2022/06/01 06:27:28;;;;;;;9.43;8.43;;;15.00;72.70;;;18.19;53.26;101221.31;5193195;27;20636;-61
2022/06/01 06:29:55;;;;;;;8.80;7.93;;;15.20;71.50;;;18.26;53.44;101219.44;5170762;27;20196;-59
2022/06/01 06:32:24;;;;;;;8.37;7.57;;;15.20;71.70;;;18.31;52.92;101220.66;5149781;27;20244;-62
2022/06/01 06:34:50;;;;;;;6.37;5.77;;;15.30;71.20;;;18.35;52.84;101219.22;5130374;27;20211;-61
2022/06/01 06:37:17;;;;;;;6.60;5.90;;;15.40;70.90;;;18.38;52.56;101224.09;5109146;28;20208;-66
2022/06/01 06:39:43;;;;;;;6.83;6.33;;;15.40;70.40;;;18.38;52.40;101230.25;5087859;28;20226;-57
2022/06/01 06:42:17;;;;;;;7.33;6.70;;;15.40;69.80;;;18.37;51.99;101233.13;5008939;28;20202;-61
2022/06/01 06:46:15;;;;;;;7.77;7.17;;;15.50;69.50;;;18.18;52.62;101232.22;5025827;28;20622;-60
2022/06/01 06:51:22;;;;;;;8.60;7.30;;;15.50;69.50;;;17.97;54.07;101240.50;5171336;27;20606;-61
2022/06/01 06:53:49;;;;;;;9.13;8.10;;;15.40;71.00;;;17.90;54.63;101242.38;5128921;27;20194;-62
2022/06/01 06:56:19;;;;;;;9.37;8.07;;;15.30;71.40;;;17.79;55.02;101243.00;5139388;27;20218;-62
2022/06/01 06:58:46;;;;;;;9.17;8.27;;;15.20;71.80;;;17.79;55.05;101240.31;5114284;28;20270;-61
2022/06/01 07:01:13;;;;;;;7.80;7.07;;;15.20;71.80;;;17.86;54.92;101241.94;5088188;28;20676;-59
2022/06/01 07:03:40;;;;;;;10.00;9.13;;;15.20;72.20;;;17.90;54.46;101237.03;5073043;28;20196;-59
2022/06/01 07:06:11;;;;;;;9.50;8.53;;;15.20;71.60;;;17.94;54.08;101243.56;5073884;28;20204;-61
2022/06/01 07:10:09;;;;;;;9.80;9.00;;;15.20;71.40;;;17.83;54.45;101241.56;4927532;28;20227;-61
2022/06/01 07:15:16;;;;;;;8.90;8.00;;;15.20;71.50;;;17.87;54.41;101243.59;5141042;27;20588;-62
2022/06/01 07:17:43;;;;;;;8.43;7.63;;;15.20;71.70;;;17.99;54.29;101246.44;5128521;28;20191;-60
2022/06/01 07:20:23;;;;;;;11.00;9.77;;;15.20;71.80;;;18.08;54.31;101242.50;5063396;28;20587;-60
2022/06/01 07:22:49;;;;;;;12.13;10.93;;;15.30;72.80;;;18.14;54.04;101244.31;5059081;28;20197;-64
2022/06/01 07:25:16;;;;;;;11.20;10.10;;;15.30;72.20;;;18.12;54.46;101244.53;5070375;28;20296;-61
2022/06/01 07:27:43;;;;;;;10.63;9.63;;;15.30;72.40;;;18.13;54.37;101242.69;5065064;28;20200;-61
2022/06/01 07:30:12;;;;;;;12.23;11.10;;;15.30;72.10;;;18.22;54.72;101242.22;5051315;28;20197;-60
2022/06/01 07:35:27;;;;;;;12.53;11.43;;;15.40;72.80;;;18.30;53.51;101243.84;5146635;27;20562;-62
2022/06/01 07:43:25;;;;;;;13.57;12.23;;;15.50;71.60;;;18.57;53.07;101248.00;4974073;28;20263;-62
2022/06/01 07:45:51;;;;;;;12.00;10.87;;;15.60;71.10;;;18.72;52.80;101248.53;4921115;28;20627;-59
2022/06/01 07:48:18;;;;;;;12.80;11.50;;;15.70;71.00;;;18.89;52.51;101255.00;4812361;29;20210;-61
2022/06/01 07:51:06;;;;;;;12.43;11.23;;;15.70;70.80;;;19.08;52.04;101247.06;4690050;30;20257;-61
2022/06/01 07:56:33;;;;;;;14.43;13.10;;;16.00;70.40;;;19.17;50.85;101261.75;5106724;27;20577;-61
2022/06/01 07:59:00;;;;;;;13.57;12.20;;;16.10;69.00;;;19.18;51.04;101253.56;5066024;28;20208;-61
2022/06/01 08:01:27;;;;;;;15.07;13.67;;;16.10;69.10;;;19.17;50.98;101257.25;5064806;28;20637;-61
2022/06/01 08:03:59;;;;;;;15.47;13.87;;;16.10;68.60;;;19.09;50.70;101264.72;5052542;28;20221;-61
2022/06/01 08:06:27;;;;;;;14.63;13.33;;;16.10;68.00;;;19.01;50.78;101262.31;4976692;28;20227;-61
2022/06/01 08:09:14;;;;;;;14.30;13.00;;;16.10;67.80;;;19.03;50.99;101265.56;4889608;29;20214;-60
2022/06/01 08:17:07;;;;;;;13.90;12.50;;;16.10;68.40;;;19.19;50.99;101265.03;5133340;27;20550;-60
2022/06/01 08:19:34;;;;;;;16.37;15.03;;;16.20;68.50;;;19.34;50.73;101268.19;5102327;28;20196;-61
2022/06/01 08:22:01;;;;;;;16.23;14.63;;;16.20;68.30;;;19.34;50.71;101274.34;5086447;28;20208;-60
2022/06/01 08:24:30;;;;;;;16.43;14.93;;;16.30;68.10;;;19.29;50.51;101270.69;5039325;28;20210;-60
2022/06/01 08:26:56;;;;;;;15.00;13.47;;;16.40;67.50;;;19.25;50.60;101269.50;4936327;28;20212;-62
2022/06/01 08:29:23;;;;;;;15.20;13.80;;;16.40;67.40;;;19.31;50.56;101268.63;4944382;28;20224;-59
2022/06/01 08:31:49;;;;;;;16.13;14.37;;;16.40;67.50;;;19.46;50.55;101274.47;4855513;28;20203;-61
2022/06/01 08:34:16;;;;;;;16.93;15.43;;;16.50;68.00;;;19.57;50.60;101273.75;4653377;30;20313;-63
2022/06/01 08:39:19;;;;;;;17.07;15.57;;;16.50;68.80;;;19.71;50.25;101269.91;5135920;27;20573;-60
2022/06/01 08:41:47;;;;;;;13.23;11.93;;;16.70;68.00;;;19.77;50.55;101274.38;5102420;27;20203;-60
2022/06/01 08:44:25;;;;;;;16.03;13.77;;;16.80;67.90;;;19.86;50.09;101272.22;5092019;28;20727;-60
2022/06/01 08:46:58;;;;;;;14.57;13.23;;;16.80;67.90;;;20.02;50.05;101266.28;5039773;28;20205;-63
2022/06/01 08:49:30;;;;;;;14.60;13.13;;;16.90;68.00;;;20.24;49.59;101271.00;4953288;28;20207;-62
2022/06/01 08:51:57;;;;;;;17.50;15.90;;;17.00;67.90;;;20.40;49.62;101268.72;4785671;29;20546;-61
2022/06/01 08:54:25;;;;;;;17.43;16.03;;;17.10;67.40;;;20.38;49.11;101270.81;4688937;30;20294;-60
2022/06/01 08:57:01;;;;;;;14.17;12.77;;;17.20;66.80;;;20.35;49.46;101265.94;4625001;30;20223;-62
2022/06/01 08:59:28;;;;;;;17.27;15.67;;;17.30;66.60;;;20.32;49.68;101261.03;4490393;31;20289;-62
2022/06/01 09:04:41;;;;;;;17.60;15.93;;;17.30;66.60;;;20.02;49.92;101267.09;5110068;27;20637;-62
2022/06/01 09:07:23;;;;;;;17.60;16.00;;;17.30;66.60;;;19.76;50.43;101266.56;5050999;28;20236;-61
2022/06/01 09:10:17;;;;;;;20.43;18.43;;;17.20;66.80;;;19.55;51.26;101279.31;5069417;28;20355;-61
2022/06/01 09:13:04;;;;;;;17.73;16.03;;;17.10;68.20;;;19.36;51.58;101274.16;4983614;28;20267;-62
2022/06/01 09:15:47;;;;;;;18.20;16.50;;;17.00;67.30;;;19.21;51.64;101276.28;4829220;29;20622;-62
2022/06/01 09:18:18;;;;;;;21.37;19.33;;;16.90;67.40;;;18.93;52.72;101269.53;4692680;29;20212;-63
2022/06/01 09:23:31;;;;;;;21.00;19.00;;;16.50;68.70;;;18.70;53.25;101277.28;4474348;31;20278;-62
2022/06/01 09:28:41;;;;;;;20.40;18.47;;;16.40;69.40;;;18.28;54.57;101268.03;5136185;27;20650;-63
2022/06/01 09:31:26;;;;;;;18.13;16.20;;;16.00;70.70;;;18.13;54.83;101274.66;5104125;27;20210;-62
2022/06/01 09:34:15;;;;;;;19.33;17.63;;;15.90;70.70;;;17.94;54.40;101276.38;5035815;28;20197;-62
2022/06/01 09:36:56;;;;;;;21.40;18.60;;;15.70;70.20;;;17.89;55.97;101278.00;4952022;28;20664;-62
2022/06/01 09:39:23;;;;;;;19.43;17.63;;;15.60;71.80;;;17.83;57.66;101279.66;4907913;28;20221;-64
2022/06/01 09:41:49;;;;;;;17.53;15.83;;;15.50;75.20;;;17.81;57.38;101275.56;4702055;29;20305;-61
2022/06/01 09:44:32;;;;;;;16.47;14.97;;;15.50;74.60;;;17.89;56.97;101280.66;4663793;30;20220;-61
2022/06/01 09:47:00;;;;;;;17.13;15.63;;;15.40;74.90;;;18.05;56.88;101282.88;4590604;30;20257;-60
2022/06/01 09:52:12;;;;;;;17.47;15.97;;;15.40;75.10;;;18.26;56.37;101279.91;5134785;27;20542;-61
2022/06/01 09:54:50;;;;;;;16.40;14.80;;;15.50;75.50;;;18.32;55.92;101276.44;5104462;28;20222;-61
2022/06/01 09:57:26;;;;;;;15.30;13.90;;;15.50;74.50;;;18.48;55.58;101278.63;5046342;28;20630;-61
2022/06/01 10:11:05;;;;;;;17.07;15.57;;;17.00;76.70;;;24.07;45.50;101268.22;5164673;27;20546;-61
2022/06/01 10:13:35;;;;;;;14.83;13.53;;;18.80;70.60;;;23.90;44.74;101262.06;5108992;28;20283;-60
2022/06/01 10:16:19;;;;;;;18.17;16.60;;;19.20;67.30;;;23.54;43.87;101262.63;5087508;28;20221;-59
2022/06/01 10:18:47;;;;;;;16.70;15.07;;;19.50;63.50;;;23.19;44.60;101267.44;5068371;28;20196;-62
2022/06/01 10:21:25;;;;;;;13.07;11.97;;;19.50;63.20;;;22.79;45.23;101265.69;5008693;28;20207;-62
2022/06/01 10:24:00;;;;;;;13.43;12.30;;;19.50;63.00;;;22.47;45.51;101269.06;4929399;29;20302;-61
2022/06/01 10:26:34;;;;;;;17.40;15.80;;;19.40;62.80;;;22.15;46.53;101268.72;4860076;29;20237;-62
2022/06/01 10:31:47;;;;;;;13.50;12.37;;;19.20;62.80;;;21.07;45.56;101275.59;5157138;27;20620;-62
2022/06/01 10:34:22;;;;;;;10.97;9.93;;;18.60;60.00;;;20.54;46.32;101275.56;5082513;28;20646;-62
2022/06/01 10:36:58;;;;;;;9.73;8.50;;;18.20;59.50;;;20.18;46.31;101277.19;5069972;28;20205;-61
2022/06/01 10:39:34;;;;;;;6.20;5.67;;;17.90;59.80;;;19.93;46.38;101276.47;5038644;28;20630;-59
2022/06/01 10:42:09;;;;;;;5.80;5.10;;;17.70;59.40;;;19.68;46.17;101280.25;4972877;28;20227;-63
2022/06/01 10:44:44;;;;;;;6.50;4.87;;;17.40;59.30;;;19.48;46.89;101280.41;4827567;29;20225;-61
2022/06/01 10:47:18;;;;;;;5.77;5.27;;;17.20;59.90;;;19.33;47.49;101282.56;4710435;30;20313;-62
2022/06/01 10:49:46;;;;;;;7.93;7.10;;;16.90;60.70;;;19.03;48.21;101286.91;4632851;30;20237;-60
2022/06/01 10:55:14;;;;;;;8.10;7.40;;;16.70;61.60;;;19.19;47.69;101286.38;5150660;27;20564;-63
2022/06/01 10:57:44;;;;;;;7.73;6.93;;;16.60;62.10;;;19.30;47.02;101296.38;5091284;28;20199;-61
2022/06/01 11:00:16;;;;;;;7.60;6.90;;;16.60;61.80;;;19.40;46.71;101299.38;5075333;28;20201;-63
2022/06/01 11:03:35;;;;;;;14.07;12.07;;;16.50;61.50;;;19.39;46.81;101303.09;5081818;28;20232;-60
2022/06/01 11:06:23;;;;;;;10.17;9.17;;;16.50;61.40;;;19.50;46.75;101294.34;4924304;28;20251;-62
2022/06/01 11:09:02;;;;;;;8.63;7.00;;;16.60;61.50;;;19.59;46.38;101298.38;4894531;29;20281;-62
2022/06/01 11:11:42;;;;;;;13.10;11.70;;;16.50;61.40;;;19.66;45.92;101299.13;4777676;29;20216;-61
2022/06/01 11:14:11;;;;;;;6.57;5.97;;;16.60;61.10;;;19.75;45.79;101297.84;4642624;30;20784;-61
2022/06/01 11:19:34;;;;;;;9.07;8.27;;;16.60;61.30;;;19.83;46.66;101300.19;5152624;27;20611;-61
2022/06/01 11:22:18;;;;;;;13.10;11.13;;;16.70;62.90;;;20.02;46.92;101293.84;5110531;27;20243;-60
2022/06/01 11:25:13;;;;;;;10.17;9.13;;;16.80;63.80;;;20.36;46.79;101296.97;5059000;28;20574;-59
2022/06/01 11:28:27;;;;;;;11.13;10.13;;;16.90;64.80;;;20.75;46.97;101299.91;5021090;28;20303;-62
2022/06/01 11:31:10;;;;;;;8.33;7.67;;;17.10;65.20;;;21.07;46.03;101289.81;4751341;29;20296;-63
2022/06/01 11:33:44;;;;;;;7.43;6.73;;;17.20;63.80;;;21.35;44.72;101299.84;4617347;30;20273;-62
2022/06/01 11:37:57;;;;;;;8.17;7.47;;;17.40;62.80;;;21.60;44.37;101295.13;4542224;30;20273;-61
2022/06/01 11:40:26;;;;;;;8.40;7.70;;;17.70;62.70;;;21.82;43.62;101295.34;4166100;33;21137;-62
2022/06/01 11:45:33;;;;;;;8.63;7.80;;;17.90;60.90;;;21.93;42.84;101294.53;5128402;27;20673;-60
2022/06/01 11:48:07;;;;;;;5.67;5.27;;;18.10;59.70;;;21.72;41.54;101303.16;5079301;28;20219;-63
2022/06/01 11:51:08;;;;;;;7.00;6.40;;;18.20;56.90;;;21.30;42.10;101297.09;5097056;28;20199;-63
2022/06/01 11:53:45;;;;;;;6.33;5.77;;;18.20;56.90;;;21.18;43.21;101301.59;5058745;28;22318;-62
2022/06/01 11:56:26;;;;;;;5.33;4.50;;;18.30;57.50;;;21.14;42.36;101298.56;5011474;28;20280;-63
2022/06/01 11:59:15;;;;;;;5.50;5.10;;;18.20;56.40;;;21.12;42.35;101306.00;4866989;29;20213;-60
2022/06/01 12:02:41;;;;;;;6.13;5.63;;;18.10;56.60;;;21.06;42.60;101301.56;4663041;30;20218;-61
2022/06/01 12:05:23;;;;;;;6.47;5.87;;;18.10;57.50;;;21.13;42.99;101296.94;4373745;32;20609;-62
2022/06/01 12:10:28;;;;;;;6.67;5.93;;;18.10;58.10;;;21.42;43.49;101293.34;5124059;27;20306;-62
2022/06/01 12:13:05;;;;;;;4.13;3.83;;;18.10;58.70;;;21.76;42.85;101296.25;5111567;27;20246;-62
2022/06/01 12:15:42;;;;;;;4.07;3.77;;;18.20;58.60;;;22.16;41.87;101284.56;5088058;28;20226;-62
2022/06/01 12:18:29;;;;;;;6.23;4.80;;;18.40;58.30;;;22.60;41.65;101285.72;5046365;28;20206;-63
2022/06/01 12:21:28;;;;;;;4.70;4.30;;;18.70;59.10;;;22.76;40.62;101287.66;4942594;28;20587;-61
2022/06/01 12:30:29;;;;;;;4.10;3.70;;;19.30;55.30;;;23.19;39.01;101280.84;4390657;32;20232;-60
2022/06/01 12:35:44;;;;;;;6.20;5.60;;;19.50;54.30;;;23.52;37.25;101281.69;5111958;27;20573;-62